METAR Data
IDs: Format: Raw Decoded Include TAF

Data at: 0635 UTC 18 Sep 2021

VTUL 180600Z VRB01KT 9999 BKN025 32/24 Q1010 NOSIG